createdAt,value
2023-04-07T00:00:28.220Z,7.03
2023-04-07T00:02:57.373Z,6.28
2023-04-07T00:05:25.436Z,6.68
2023-04-07T00:07:56.939Z,7.70
2023-04-07T00:10:25.906Z,7.05
2023-04-07T00:12:54.034Z,8.13
2023-04-07T00:15:22.303Z,7.90
2023-04-07T00:17:51.911Z,7.00
2023-04-07T00:20:20.208Z,7.35
2023-04-07T00:22:48.681Z,6.85
2023-04-07T00:25:17.053Z,7.15
2023-04-07T00:27:45.542Z,7.38
2023-04-07T00:30:15.472Z,7.10
2023-04-07T00:32:43.910Z,6.72
2023-04-07T00:35:15.493Z,7.00
2023-04-07T00:37:43.536Z,6.78
2023-04-07T00:40:12.350Z,7.00
2023-04-07T00:42:41.218Z,7.72
2023-04-07T00:45:11.619Z,7.45
2023-04-07T00:47:41.289Z,7.70
2023-04-07T00:50:10.443Z,7.32
2023-04-07T00:52:41.113Z,7.80
2023-04-07T00:55:10.138Z,7.90
2023-04-07T00:57:38.865Z,6.93
2023-04-07T01:00:09.392Z,7.13
2023-04-07T01:02:42.958Z,7.50
2023-04-07T01:05:17.520Z,7.18
2023-04-07T01:07:52.529Z,7.63
2023-04-07T01:10:23.505Z,7.65
2023-04-07T01:12:56.229Z,7.35
2023-04-07T01:15:25.078Z,7.28
2023-04-07T01:17:57.993Z,7.50
2023-04-07T01:20:28.261Z,7.18
2023-04-07T01:23:00.195Z,7.50
2023-04-07T01:25:37.831Z,7.80
2023-04-07T01:28:22.167Z,7.53
2023-04-07T01:30:52.798Z,9.30
2023-04-07T01:33:21.586Z,7.03
2023-04-07T01:35:51.446Z,8.35
2023-04-07T01:38:20.303Z,7.72
2023-04-07T01:40:48.993Z,8.02
2023-04-07T01:43:17.640Z,8.32
2023-04-07T01:45:47.256Z,8.93
2023-04-07T01:48:17.364Z,8.07
2023-04-07T01:50:46.211Z,8.13
2023-04-07T01:53:15.429Z,8.55
2023-04-07T01:55:44.655Z,8.45
2023-04-07T01:58:12.706Z,8.40
2023-04-07T02:00:40.802Z,8.93
2023-04-07T02:03:13.329Z,8.60
2023-04-07T02:05:43.252Z,8.57
2023-04-07T02:08:12.596Z,9.23
2023-04-07T02:10:42.241Z,8.63
2023-04-07T02:13:14.764Z,8.90
2023-04-07T02:15:45.450Z,9.05
2023-04-07T02:18:14.728Z,8.63
2023-04-07T02:20:45.459Z,9.55
2023-04-07T02:23:14.893Z,9.07
2023-04-07T02:25:43.109Z,8.82
2023-04-07T02:28:11.397Z,8.50
2023-04-07T02:30:39.441Z,9.48
2023-04-07T02:33:12.519Z,9.38
2023-04-07T02:35:40.850Z,8.60
2023-04-07T02:38:10.556Z,9.02
2023-04-07T02:40:38.681Z,9.25
2023-04-07T02:43:06.773Z,9.85
2023-04-07T02:45:34.743Z,10.95
2023-04-07T02:48:02.996Z,9.05
2023-04-07T02:50:31.271Z,8.55
2023-04-07T02:53:00.236Z,9.77
2023-04-07T02:55:29.994Z,9.25
2023-04-07T02:57:58.045Z,9.35
2023-04-07T03:00:26.803Z,8.23
2023-04-07T03:02:55.338Z,9.65
2023-04-07T03:05:24.247Z,10.10
2023-04-07T03:07:53.145Z,8.65
2023-04-07T03:10:21.453Z,7.43
2023-04-07T03:12:51.019Z,8.70
2023-04-07T03:15:19.332Z,9.25
2023-04-07T03:17:47.911Z,8.43
2023-04-07T03:20:17.167Z,9.02
2023-04-07T03:22:47.391Z,9.00
2023-04-07T03:25:15.441Z,9.55
2023-04-07T03:27:43.481Z,9.00
2023-04-07T03:30:14.035Z,9.70
2023-04-07T03:32:42.163Z,10.07
2023-04-07T03:35:12.224Z,9.75
2023-04-07T03:37:41.283Z,11.50
2023-04-07T03:40:10.029Z,8.90
2023-04-07T03:42:38.046Z,9.55
2023-04-07T03:45:08.126Z,9.23
2023-04-07T03:47:37.968Z,10.10
2023-04-07T03:50:07.074Z,10.32
2023-04-07T03:52:36.148Z,9.98
2023-04-07T03:55:04.429Z,9.07
2023-04-07T03:57:32.485Z,9.65
2023-04-07T04:00:00.534Z,9.93
2023-04-07T04:02:28.607Z,10.40
2023-04-07T04:04:58.037Z,8.82
2023-04-07T04:07:27.188Z,9.70
2023-04-07T04:09:56.200Z,8.65
2023-04-07T04:12:24.532Z,9.00
2023-04-07T04:14:52.935Z,11.38
2023-04-07T04:17:21.035Z,9.07
2023-04-07T04:19:49.250Z,8.50
2023-04-07T04:22:19.440Z,9.07
2023-04-07T04:24:47.924Z,8.93
2023-04-07T04:27:16.299Z,9.18
2023-04-07T04:29:44.618Z,8.98
2023-04-07T04:32:13.016Z,9.95
2023-04-07T04:34:42.086Z,10.70
2023-04-07T04:37:10.361Z,9.32
2023-04-07T04:39:39.972Z,9.93
2023-04-07T04:42:08.483Z,10.23
2023-04-07T04:44:36.793Z,11.48
2023-04-07T04:47:04.980Z,12.65
2023-04-07T04:49:33.441Z,11.15
2023-04-07T04:52:01.935Z,10.00
2023-04-07T04:54:30.365Z,10.43
2023-04-07T04:56:59.897Z,10.88
2023-04-07T04:59:28.284Z,10.02
2023-04-07T05:01:56.906Z,10.68
2023-04-07T05:04:25.653Z,10.10
2023-04-07T05:06:54.048Z,9.95
2023-04-07T05:09:22.829Z,9.77
2023-04-07T05:11:51.048Z,9.77
2023-04-07T05:14:21.063Z,10.20
2023-04-07T05:16:49.257Z,9.57
2023-04-07T05:19:17.289Z,9.30
2023-04-07T05:21:45.478Z,9.80
2023-04-07T05:24:13.607Z,8.95
2023-04-07T05:26:41.759Z,10.23
2023-04-07T05:29:09.799Z,8.93
2023-04-07T05:31:40.405Z,9.95
2023-04-07T05:34:08.543Z,8.85
2023-04-07T05:36:36.668Z,9.45
2023-04-07T05:39:05.138Z,9.02
2023-04-07T05:41:33.242Z,9.05
2023-04-07T05:44:01.354Z,9.23
2023-04-07T05:46:29.864Z,8.93
2023-04-07T05:49:02.638Z,9.10
2023-04-07T05:51:35.752Z,9.00
2023-04-07T05:54:04.452Z,9.73
2023-04-07T05:56:32.982Z,8.82
2023-04-07T05:59:02.003Z,8.88
2023-04-07T06:01:30.787Z,9.35
2023-04-07T06:04:01.583Z,8.90
2023-04-07T06:06:31.393Z,8.80
2023-04-07T06:09:00.926Z,9.05
2023-04-07T06:11:29.405Z,8.90
2023-04-07T06:13:57.529Z,8.93
2023-04-07T06:16:25.535Z,9.93
2023-04-07T06:18:53.652Z,9.05
2023-04-07T06:21:23.078Z,8.43
2023-04-07T06:23:51.462Z,8.85
2023-04-07T06:26:19.968Z,8.43
2023-04-07T06:28:48.946Z,9.63
2023-04-07T06:31:18.707Z,9.05
2023-04-07T06:33:47.685Z,8.55
2023-04-07T06:36:15.899Z,8.00
2023-04-07T06:38:45.593Z,8.60
2023-04-07T06:41:17.236Z,8.52
2023-04-07T06:43:45.641Z,8.60
2023-04-07T06:46:14.189Z,8.27
2023-04-07T06:48:42.865Z,8.65
2023-04-07T06:51:11.332Z,9.20
2023-04-07T06:53:39.396Z,8.60
2023-04-07T06:56:10.831Z,8.82
2023-04-07T06:58:39.109Z,8.03
2023-04-07T07:01:07.532Z,8.63
2023-04-07T07:03:36.266Z,9.07
2023-04-07T07:06:04.491Z,9.27
2023-04-07T07:08:34.548Z,7.85
2023-04-07T07:11:03.074Z,8.32
2023-04-07T07:13:32.527Z,8.48
2023-04-07T07:16:00.899Z,8.90
2023-04-07T07:18:31.544Z,7.25
2023-04-07T07:21:00.256Z,8.52
2023-04-07T07:23:28.217Z,8.27
2023-04-07T07:25:56.290Z,8.38
2023-04-07T07:28:24.316Z,7.88
2023-04-07T07:30:54.336Z,8.20
2023-04-07T07:33:22.831Z,8.52
2023-04-07T07:35:50.834Z,9.23
2023-04-07T07:38:21.246Z,8.35
2023-04-07T07:40:49.442Z,8.15
2023-04-07T07:43:18.059Z,8.98
2023-04-07T07:45:47.163Z,8.40
2023-04-07T07:48:16.562Z,8.90
2023-04-07T07:50:45.004Z,8.00
2023-04-07T07:53:13.306Z,8.50
2023-04-07T07:55:42.355Z,9.13
2023-04-07T07:58:12.513Z,8.25
2023-04-07T08:00:41.235Z,8.80
2023-04-07T08:03:09.457Z,9.05
2023-04-07T08:05:39.230Z,8.57
2023-04-07T08:08:08.640Z,8.63
2023-04-07T08:10:41.576Z,8.35
2023-04-07T08:13:09.675Z,8.50
2023-04-07T08:15:37.763Z,7.55
2023-04-07T08:18:07.482Z,7.85
2023-04-07T08:20:36.454Z,7.85
2023-04-07T08:23:07.472Z,7.80
2023-04-07T08:25:40.006Z,7.68
2023-04-07T08:28:08.113Z,9.73
2023-04-07T08:30:38.158Z,8.50
2023-04-07T08:33:07.252Z,8.27
2023-04-07T08:35:35.954Z,8.20
2023-04-07T08:38:04.021Z,7.85
2023-04-07T08:40:33.755Z,8.20
2023-04-07T08:43:02.518Z,7.65
2023-04-07T08:45:31.342Z,7.35
2023-04-07T08:48:00.437Z,8.50
2023-04-07T08:50:29.060Z,8.18
2023-04-07T08:52:58.264Z,6.40
2023-04-07T08:55:27.333Z,6.88
2023-04-07T08:57:57.201Z,6.57
2023-04-07T09:00:25.352Z,5.90
2023-04-07T09:02:53.643Z,6.47
2023-04-07T09:05:22.480Z,4.88
2023-04-07T09:07:52.139Z,5.13
2023-04-07T09:10:21.712Z,6.20
2023-04-07T09:12:49.769Z,5.75
2023-04-07T09:15:19.363Z,4.57
2023-04-07T09:17:47.455Z,5.00
2023-04-07T09:20:16.109Z,6.05
2023-04-07T09:22:46.156Z,5.25
2023-04-07T09:25:16.543Z,4.95
2023-04-07T09:28:02.693Z,5.30
2023-04-07T09:30:33.606Z,5.20
2023-04-07T09:33:02.810Z,6.05
2023-04-07T09:35:32.193Z,5.75
2023-04-07T09:38:05.781Z,5.22
2023-04-07T09:40:33.840Z,5.05
2023-04-07T09:43:03.519Z,5.55
2023-04-07T09:45:36.794Z,4.05
2023-04-07T09:48:09.227Z,3.50
2023-04-07T09:50:39.964Z,3.90
2023-04-07T09:53:08.473Z,3.35
2023-04-07T09:55:36.881Z,3.95
2023-04-07T09:58:06.571Z,3.83
2023-04-07T10:00:36.981Z,3.90
2023-04-07T10:03:05.926Z,4.25
2023-04-07T10:05:35.630Z,4.20
2023-04-07T10:08:05.404Z,4.43
2023-04-07T10:10:33.677Z,5.05
2023-04-07T10:13:02.647Z,4.68
2023-04-07T10:15:31.785Z,4.25
2023-04-07T10:18:01.703Z,4.07
2023-04-07T10:20:31.548Z,4.88
2023-04-07T10:23:06.136Z,4.35
2023-04-07T10:25:36.502Z,4.40
2023-04-07T10:28:07.260Z,3.90
2023-04-07T10:30:35.675Z,3.95
2023-04-07T10:33:05.772Z,4.10
2023-04-07T10:36:05.013Z,3.88
2023-04-07T10:38:33.803Z,4.05
2023-04-07T10:41:02.249Z,4.53
2023-04-07T10:43:39.747Z,4.00
2023-04-07T10:46:07.793Z,3.78
2023-04-07T10:48:37.478Z,3.55
2023-04-07T10:51:19.057Z,3.88
2023-04-07T10:54:27.902Z,3.78
2023-04-07T10:57:11.945Z,3.63
2023-04-07T10:59:43.478Z,3.63
2023-04-07T11:02:34.939Z,3.65
2023-04-07T11:05:06.689Z,3.38
2023-04-07T11:07:55.368Z,2.95
2023-04-07T11:10:23.459Z,3.13
2023-04-07T11:13:03.176Z,3.05
2023-04-07T11:15:31.776Z,2.58
2023-04-07T11:18:11.152Z,3.10
2023-04-07T11:20:55.603Z,2.50
2023-04-07T11:23:27.392Z,2.50
2023-04-07T11:26:01.756Z,2.92
2023-04-07T11:28:30.400Z,2.70
2023-04-07T11:31:00.528Z,2.90
2023-04-07T11:33:31.515Z,2.08
2023-04-07T11:36:02.420Z,2.05
2023-04-07T11:38:32.557Z,1.90
2023-04-07T11:41:12.436Z,2.60
2023-04-07T11:43:42.173Z,2.08
2023-04-07T11:46:12.030Z,2.17
2023-04-07T11:48:41.815Z,1.90
2023-04-07T11:51:19.386Z,2.80
2023-04-07T11:53:48.776Z,2.55
2023-04-07T11:56:19.232Z,2.83
2023-04-07T11:58:51.955Z,3.03
2023-04-07T12:01:20.574Z,2.97
2023-04-07T12:04:03.284Z,2.83
2023-04-07T12:06:34.980Z,3.13
2023-04-07T12:09:03.861Z,3.45
2023-04-07T12:11:37.745Z,3.08
2023-04-07T12:14:06.724Z,3.53
2023-04-07T12:16:39.013Z,3.13
2023-04-07T12:21:36.807Z,3.28
2023-04-07T12:24:04.847Z,3.35
2023-04-07T12:26:32.905Z,4.72
2023-04-07T12:29:05.536Z,4.07
2023-04-07T12:31:34.248Z,4.55
2023-04-07T12:34:02.569Z,4.38
2023-04-07T12:36:30.612Z,4.07
2023-04-07T12:39:00.501Z,3.83
2023-04-07T12:41:28.823Z,3.95
2023-04-07T12:43:57.245Z,4.28
2023-04-07T12:46:25.566Z,4.80
2023-04-07T12:48:53.650Z,4.85
2023-04-07T12:51:22.294Z,5.95
2023-04-07T12:53:50.667Z,5.35
2023-04-07T12:56:22.469Z,5.57
2023-04-07T12:58:50.852Z,5.35
2023-04-07T13:01:19.555Z,5.60
2023-04-07T13:03:48.219Z,4.85
2023-04-07T13:06:17.892Z,5.40
2023-04-07T13:08:46.267Z,4.97
2023-04-07T13:11:14.441Z,4.70
2023-04-07T13:13:46.235Z,5.18
2023-04-07T13:16:14.396Z,5.60
2023-04-07T13:18:42.818Z,4.78
2023-04-07T13:21:42.988Z,4.85
2023-04-07T13:23:59.450Z,4.43
2023-04-07T13:26:28.336Z,4.18
2023-04-07T13:28:57.889Z,4.47
2023-04-07T13:31:26.416Z,3.47
2023-04-07T13:33:54.519Z,4.00
2023-04-07T13:36:23.607Z,3.95
2023-04-07T13:38:51.627Z,3.58
2023-04-07T13:41:21.544Z,3.90
2023-04-07T13:43:52.168Z,3.28
2023-04-07T13:46:28.388Z,2.72
2023-04-07T13:48:57.458Z,3.30
2023-04-07T13:51:25.746Z,2.85
2023-04-07T13:53:54.281Z,3.22
2023-04-07T13:56:22.559Z,3.30
2023-04-07T13:58:50.626Z,3.42
2023-04-07T14:01:18.733Z,2.58
2023-04-07T14:03:49.624Z,2.20
2023-04-07T14:06:18.190Z,2.42
2023-04-07T14:08:46.629Z,2.60
2023-04-07T14:11:18.516Z,2.88
2023-04-07T14:13:46.880Z,3.13
2023-04-07T14:16:15.547Z,3.17
2023-04-07T14:18:43.913Z,2.88
2023-04-07T14:21:13.440Z,3.10
2023-04-07T14:23:42.312Z,3.30
2023-04-07T14:26:11.655Z,2.85
2023-04-07T14:28:40.503Z,2.78
2023-04-07T14:31:13.684Z,3.40
2023-04-07T14:33:42.138Z,3.33
2023-04-07T14:36:10.621Z,3.75
2023-04-07T14:38:39.983Z,4.28
2023-04-07T14:41:10.716Z,4.05
2023-04-07T14:43:39.710Z,3.92
2023-04-07T14:46:09.352Z,3.67
2023-04-07T14:48:38.177Z,4.47
2023-04-07T14:51:12.964Z,4.15
2023-04-07T14:53:43.405Z,4.35
2023-04-07T14:56:11.465Z,4.22
2023-04-07T14:58:40.672Z,4.18
2023-04-07T15:01:09.060Z,4.70
2023-04-07T15:03:37.207Z,4.32
2023-04-07T15:06:08.128Z,4.28
2023-04-07T15:08:39.328Z,4.55
2023-04-07T15:11:09.120Z,5.13
2023-04-07T15:13:37.580Z,5.25
2023-04-07T15:16:12.156Z,5.45
2023-04-07T15:18:41.560Z,5.63
2023-04-07T15:21:10.220Z,5.50
2023-04-07T15:23:39.065Z,6.18
2023-04-07T15:26:09.413Z,6.32
2023-04-07T15:28:37.549Z,6.63
2023-04-07T15:31:08.934Z,5.72
2023-04-07T15:33:38.086Z,5.70
2023-04-07T15:36:08.155Z,6.57
2023-04-07T15:38:36.372Z,5.63
2023-04-07T15:41:04.960Z,5.85
2023-04-07T15:43:34.604Z,6.32
2023-04-07T15:46:04.386Z,6.03
2023-04-07T15:48:32.928Z,5.30
2023-04-07T15:51:03.995Z,5.05
2023-04-07T15:53:32.123Z,4.95
2023-04-07T15:56:00.267Z,6.00
2023-04-07T15:58:28.401Z,5.75
2023-04-07T16:00:57.718Z,5.60
2023-04-07T16:03:29.066Z,5.55
2023-04-07T16:05:57.618Z,5.72
2023-04-07T16:08:28.765Z,5.75
2023-04-07T16:10:57.231Z,5.07
2023-04-07T16:13:25.725Z,4.68
2023-04-07T16:15:58.463Z,5.18
2023-04-07T16:18:26.570Z,5.10
2023-04-07T16:20:54.658Z,4.93
2023-04-07T16:23:23.305Z,4.70
2023-04-07T16:25:51.771Z,4.93
2023-04-07T16:28:19.826Z,4.70
2023-04-07T16:30:47.803Z,5.28
2023-04-07T16:33:17.756Z,4.75
2023-04-07T16:35:45.996Z,5.47
2023-04-07T16:38:14.326Z,5.63
2023-04-07T16:40:47.864Z,5.72
2023-04-07T16:43:21.782Z,5.38
2023-04-07T16:45:51.893Z,4.82
2023-04-07T16:48:22.492Z,5.80
2023-04-07T16:50:50.738Z,5.65
2023-04-07T16:53:21.213Z,5.30
2023-04-07T16:55:49.901Z,6.75
2023-04-07T16:58:19.578Z,6.07
2023-04-07T17:00:47.802Z,5.95
2023-04-07T17:03:16.270Z,5.82
2023-04-07T17:05:47.195Z,6.13
2023-04-07T17:08:15.513Z,5.95
2023-04-07T17:10:43.819Z,7.00
2023-04-07T17:13:12.340Z,6.72
2023-04-07T17:15:40.492Z,7.38
2023-04-07T17:18:08.821Z,6.70
2023-04-07T17:20:37.754Z,6.93
2023-04-07T17:23:07.338Z,6.38
2023-04-07T17:25:35.757Z,7.47
2023-04-07T17:28:04.499Z,7.03
2023-04-07T17:30:33.626Z,7.68
2023-04-07T17:33:03.605Z,7.70
2023-04-07T17:35:33.283Z,7.75
2023-04-07T17:38:02.782Z,7.53
2023-04-07T17:40:33.190Z,8.98
2023-04-07T17:43:01.308Z,9.48
2023-04-07T17:45:33.202Z,9.50
2023-04-07T17:48:04.764Z,9.38
2023-04-07T17:50:32.830Z,9.50
2023-04-07T17:53:02.950Z,9.18
2023-04-07T17:55:32.338Z,8.27
2023-04-07T17:58:02.277Z,8.45
2023-04-07T18:00:30.746Z,7.88
2023-04-07T18:02:58.978Z,7.40
2023-04-07T18:05:28.410Z,8.48
2023-04-07T18:07:56.476Z,8.07
2023-04-07T18:10:24.640Z,8.48
2023-04-07T18:12:54.084Z,8.90
2023-04-07T18:15:22.411Z,9.23
2023-04-07T18:17:53.299Z,8.77
2023-04-07T18:20:22.752Z,8.50
2023-04-07T18:22:51.860Z,8.02
2023-04-07T18:25:22.840Z,8.55
2023-04-07T18:27:51.015Z,9.98
2023-04-07T18:30:21.392Z,9.93
2023-04-07T18:32:50.108Z,7.95
2023-04-07T18:35:18.105Z,7.18
2023-04-07T18:37:46.529Z,9.57
2023-04-07T18:40:16.254Z,8.23
2023-04-07T18:42:44.373Z,10.07
2023-04-07T18:45:12.900Z,9.32
2023-04-07T18:47:42.407Z,8.15
2023-04-07T18:50:11.471Z,8.20
2023-04-07T18:52:39.703Z,9.43
2023-04-07T18:55:09.152Z,8.98
2023-04-07T18:57:37.340Z,9.68
2023-04-07T19:00:06.614Z,7.97
2023-04-07T19:02:34.908Z,8.48
2023-04-07T19:05:05.689Z,9.50
2023-04-07T19:07:36.169Z,9.27
2023-04-07T19:10:04.321Z,9.18
2023-04-07T19:12:32.465Z,10.50
2023-04-07T19:15:00.848Z,8.63
2023-04-07T19:17:30.856Z,9.57
2023-04-07T19:19:59.204Z,9.00
2023-04-07T19:22:28.860Z,9.18
2023-04-07T19:24:56.900Z,8.45
2023-04-07T19:27:26.002Z,8.40
2023-04-07T19:29:54.012Z,9.02
2023-04-07T19:32:22.156Z,9.40
2023-04-07T19:34:50.698Z,9.63
2023-04-07T19:37:18.877Z,9.73
2023-04-07T19:40:01.822Z,9.55
2023-04-07T19:42:30.705Z,9.07
2023-04-07T19:45:00.467Z,9.23
2023-04-07T19:47:28.894Z,9.18
2023-04-07T19:49:56.945Z,9.50
2023-04-07T19:52:26.892Z,9.85
2023-04-07T19:54:57.319Z,8.98
2023-04-07T19:57:26.192Z,10.82
2023-04-07T19:59:55.783Z,9.60
2023-04-07T20:02:24.347Z,9.65
2023-04-07T20:04:52.519Z,9.93
2023-04-07T20:07:20.806Z,9.60
2023-04-07T20:09:50.586Z,8.68
2023-04-07T20:12:20.241Z,9.68
2023-04-07T20:14:50.927Z,10.05
2023-04-07T20:17:18.932Z,8.68
2023-04-07T20:19:48.248Z,9.23
2023-04-07T20:22:16.684Z,10.07
2023-04-07T20:24:44.884Z,9.45
2023-04-07T20:27:13.138Z,8.32
2023-04-07T20:29:42.636Z,8.60
2023-04-07T20:32:10.684Z,8.63
2023-04-07T20:34:40.368Z,8.68
2023-04-07T20:37:08.589Z,8.80
2023-04-07T20:39:36.617Z,10.38
2023-04-07T20:42:04.792Z,8.07
2023-04-07T20:44:33.052Z,8.95
2023-04-07T20:47:08.293Z,8.98
2023-04-07T20:49:37.035Z,8.25
2023-04-07T20:52:06.908Z,8.63
2023-04-07T20:54:35.410Z,8.98
2023-04-07T20:57:03.702Z,10.07
2023-04-07T20:59:32.707Z,9.88
2023-04-07T21:02:02.654Z,11.68
2023-04-07T21:04:30.999Z,10.82
2023-04-07T21:06:59.159Z,10.70
2023-04-07T21:09:27.864Z,11.35
2023-04-07T21:11:56.163Z,11.98
2023-04-07T21:14:24.193Z,12.15
2023-04-07T21:16:52.864Z,11.88
2023-04-07T21:19:22.947Z,13.60
2023-04-07T21:21:51.340Z,13.07
2023-04-07T21:24:22.281Z,12.90
2023-04-07T21:26:50.393Z,13.23
2023-04-07T21:29:20.914Z,12.38
2023-04-07T21:31:49.100Z,12.90
2023-04-07T21:34:19.398Z,13.88
2023-04-07T21:36:51.310Z,14.60
2023-04-07T21:39:19.352Z,15.65
2023-04-07T21:41:47.500Z,17.33
2023-04-07T21:44:20.221Z,15.65
2023-04-07T21:46:51.035Z,16.20
2023-04-07T21:49:22.183Z,16.90
2023-04-07T21:51:52.011Z,16.63
2023-04-07T21:54:20.372Z,16.95
2023-04-07T21:56:51.602Z,16.80
2023-04-07T21:59:20.036Z,16.83
2023-04-07T22:01:48.412Z,16.67
2023-04-07T22:04:16.493Z,17.27
2023-04-07T22:06:44.709Z,18.05
2023-04-07T22:09:15.065Z,17.08
2023-04-07T22:11:43.362Z,17.40
2023-04-07T22:14:11.502Z,17.80
2023-04-07T22:16:39.746Z,17.80
2023-04-07T22:19:07.903Z,17.90
2023-04-07T22:21:36.003Z,18.10
2023-04-07T22:24:05.397Z,18.48
2023-04-07T22:26:34.786Z,18.42
2023-04-07T22:29:02.806Z,18.00
2023-04-07T22:31:32.395Z,18.67
2023-04-07T22:34:00.757Z,18.10
2023-04-07T22:36:29.182Z,18.27
2023-04-07T22:38:58.617Z,19.85
2023-04-07T22:41:27.117Z,17.77
2023-04-07T22:43:56.909Z,18.75
2023-04-07T22:46:25.367Z,19.42
2023-04-07T22:48:53.870Z,17.67
2023-04-07T22:51:22.007Z,18.58
2023-04-07T22:53:50.146Z,16.27
2023-04-07T22:56:19.240Z,18.20
2023-04-07T22:58:48.134Z,17.63
2023-04-07T23:01:18.469Z,18.05
2023-04-07T23:03:46.665Z,18.50
2023-04-07T23:06:14.834Z,18.15
2023-04-07T23:08:42.861Z,19.83
2023-04-07T23:11:11.008Z,17.85
2023-04-07T23:13:39.773Z,18.38
2023-04-07T23:16:12.395Z,18.05
2023-04-07T23:18:42.761Z,17.90
2023-04-07T23:21:13.237Z,18.42
2023-04-07T23:23:41.652Z,17.95
2023-04-07T23:26:09.881Z,18.70
2023-04-07T23:28:38.312Z,18.77
2023-04-07T23:31:07.213Z,19.65
2023-04-07T23:33:36.418Z,18.35
2023-04-07T23:36:07.221Z,17.48
2023-04-07T23:38:36.456Z,18.30
2023-04-07T23:41:04.761Z,19.38
2023-04-07T23:43:34.493Z,18.13
2023-04-07T23:46:02.997Z,19.08
2023-04-07T23:48:31.863Z,18.20
2023-04-07T23:51:01.503Z,18.17
2023-04-07T23:53:30.968Z,16.85
2023-04-07T23:55:58.935Z,16.77
2023-04-07T23:58:27.255Z,17.33
